sensor_id;sensor_type;location;lat;lon;timestamp;pressure;altitude;pressure_sealevel;temperature;humidity
65754;BME280;69207;47.502;18.940;2023-08-06T00:00:27;96838.09;;;18.57;100.00
65754;BME280;69207;47.502;18.940;2023-08-06T00:01:30;96835.31;;;18.57;100.00
65754;BME280;69207;47.502;18.940;2023-08-06T00:02:32;96828.34;;;18.58;100.00
65754;BME280;69207;47.502;18.940;2023-08-06T00:03:35;96836.13;;;18.65;100.00
65754;BME280;69207;47.502;18.940;2023-08-06T00:04:39;96835.44;;;18.65;100.00
65754;BME280;69207;47.502;18.940;2023-08-06T00:05:42;96834.69;;;18.60;100.00
65754;BME280;69207;47.502;18.940;2023-08-06T00:06:45;96827.69;;;18.59;100.00
65754;BME280;69207;47.502;18.940;2023-08-06T00:07:48;96826.97;;;18.59;100.00
65754;BME280;69207;47.502;18.940;2023-08-06T00:08:51;96824.16;;;18.55;100.00
65754;BME280;69207;47.502;18.940;2023-08-06T00:09:54;96832.50;;;18.55;100.00
65754;BME280;69207;47.502;18.940;2023-08-06T00:10:57;96833.91;;;18.56;100.00
65754;BME280;69207;47.502;18.940;2023-08-06T00:11:59;96829.72;;;18.55;100.00
65754;BME280;69207;47.502;18.940;2023-08-06T00:13:02;96826.19;;;18.52;100.00
65754;BME280;69207;47.502;18.940;2023-08-06T00:14:05;96828.25;;;18.52;100.00
65754;BME280;69207;47.502;18.940;2023-08-06T00:15:09;96835.28;;;18.55;100.00
65754;BME280;69207;47.502;18.940;2023-08-06T00:16:13;96828.97;;;18.52;100.00
65754;BME280;69207;47.502;18.940;2023-08-06T00:17:16;96825.44;;;18.50;100.00
65754;BME280;69207;47.502;18.940;2023-08-06T00:18:19;96826.84;;;18.51;100.00
65754;BME280;69207;47.502;18.940;2023-08-06T00:19:21;96826.84;;;18.51;100.00
65754;BME280;69207;47.502;18.940;2023-08-06T00:20:24;96835.88;;;18.49;100.00
65754;BME280;69207;47.502;18.940;2023-08-06T00:21:27;96823.31;;;18.48;100.00
65754;BME280;69207;47.502;18.940;2023-08-06T00:22:31;96835.16;;;18.48;100.00
65754;BME280;69207;47.502;18.940;2023-08-06T00:23:34;96827.47;;;18.47;100.00
65754;BME280;69207;47.502;18.940;2023-08-06T00:24:37;96826.06;;;18.46;100.00
65754;BME280;69207;47.502;18.940;2023-08-06T00:25:39;96818.41;;;18.44;100.00
65754;BME280;69207;47.502;18.940;2023-08-06T00:26:42;96823.28;;;18.46;100.00
65754;BME280;69207;47.502;18.940;2023-08-06T00:27:45;96823.28;;;18.46;100.00
65754;BME280;69207;47.502;18.940;2023-08-06T00:28:48;96819.91;;;18.50;100.00
65754;BME280;69207;47.502;18.940;2023-08-06T00:29:51;96817.88;;;18.54;100.00
65754;BME280;69207;47.502;18.940;2023-08-06T00:30:54;96824.75;;;18.49;100.00
65754;BME280;69207;47.502;18.940;2023-08-06T00:31:58;96817.72;;;18.44;100.00
65754;BME280;69207;47.502;18.940;2023-08-06T00:33:00;96821.97;;;18.49;100.00
65754;BME280;69207;47.502;18.940;2023-08-06T00:34:03;96824.63;;;18.43;100.00
65754;BME280;69207;47.502;18.940;2023-08-06T00:35:06;96830.84;;;18.39;100.00
65754;BME280;69207;47.502;18.940;2023-08-06T00:36:09;96825.28;;;18.39;100.00
65754;BME280;69207;47.502;18.940;2023-08-06T00:37:12;96825.22;;;18.37;100.00
65754;BME280;69207;47.502;18.940;2023-08-06T00:38:15;96823.16;;;18.38;100.00
65754;BME280;69207;47.502;18.940;2023-08-06T00:39:18;96825.94;;;18.38;100.00
65754;BME280;69207;47.502;18.940;2023-08-06T00:40:21;96817.59;;;18.38;100.00
65754;BME280;69207;47.502;18.940;2023-08-06T00:41:25;96822.44;;;18.37;100.00
65754;BME280;69207;47.502;18.940;2023-08-06T00:42:27;96821.09;;;18.38;100.00
65754;BME280;69207;47.502;18.940;2023-08-06T00:43:30;96814.09;;;18.37;100.00
65754;BME280;69207;47.502;18.940;2023-08-06T00:44:33;96816.84;;;18.35;100.00
65754;BME280;69207;47.502;18.940;2023-08-06T00:45:36;96811.38;;;18.39;100.00
65754;BME280;69207;47.502;18.940;2023-08-06T00:46:39;96809.88;;;18.34;100.00
65754;BME280;69207;47.502;18.940;2023-08-06T00:47:42;96816.16;;;18.35;100.00
65754;BME280;69207;47.502;18.940;2023-08-06T00:48:45;96802.22;;;18.33;100.00
65754;BME280;69207;47.502;18.940;2023-08-06T00:49:48;96800.78;;;18.32;100.00
65754;BME280;69207;47.502;18.940;2023-08-06T00:50:52;96799.37;;;18.29;100.00
65754;BME280;69207;47.502;18.940;2023-08-06T00:51:55;96797.25;;;18.27;100.00
65754;BME280;69207;47.502;18.940;2023-08-06T00:52:59;96797.25;;;18.27;100.00
65754;BME280;69207;47.502;18.940;2023-08-06T00:54:02;96800.69;;;18.26;100.00
65754;BME280;69207;47.502;18.940;2023-08-06T00:55:06;96790.94;;;18.25;100.00
65754;BME280;69207;47.502;18.940;2023-08-06T00:56:09;96787.47;;;18.24;100.00
65754;BME280;69207;47.502;18.940;2023-08-06T00:57:12;96786.09;;;18.25;100.00
65754;BME280;69207;47.502;18.940;2023-08-06T00:58:16;96788.25;;;18.29;100.00
65754;BME280;69207;47.502;18.940;2023-08-06T00:59:19;96785.47;;;18.29;100.00
65754;BME280;69207;47.502;18.940;2023-08-06T01:00:24;96778.44;;;18.26;100.00
65754;BME280;69207;47.502;18.940;2023-08-06T01:01:27;96772.84;;;18.22;100.00
65754;BME280;69207;47.502;18.940;2023-08-06T01:02:30;96776.94;;;18.18;100.00
65754;BME280;69207;47.502;18.940;2023-08-06T01:03:33;96772.09;;;18.19;100.00
65754;BME280;69207;47.502;18.940;2023-08-06T01:04:35;96774.91;;;18.21;100.00
65754;BME280;69207;47.502;18.940;2023-08-06T01:05:39;96770.00;;;18.19;100.00
65754;BME280;69207;47.502;18.940;2023-08-06T01:06:48;96768.69;;;18.23;100.00
65754;BME280;69207;47.502;18.940;2023-08-06T01:08:54;96766.63;;;18.25;100.00
65754;BME280;69207;47.502;18.940;2023-08-06T01:09:50;96766.59;;;18.23;100.00
65754;BME280;69207;47.502;18.940;2023-08-06T01:13:46;96775.56;;;18.19;100.00
65754;BME280;69207;47.502;18.940;2023-08-06T01:14:54;96761.66;;;18.19;100.00
65754;BME280;69207;47.502;18.940;2023-08-06T01:15:59;96765.84;;;18.18;100.00
65754;BME280;69207;47.502;18.940;2023-08-06T01:17:04;96763.03;;;18.16;100.00
65754;BME280;69207;47.502;18.940;2023-08-06T01:18:08;96763.72;;;18.17;100.00
65754;BME280;69207;47.502;18.940;2023-08-06T01:19:18;96762.37;;;18.20;100.00
65754;BME280;69207;47.502;18.940;2023-08-06T01:20:21;96761.00;;;18.21;100.00
65754;BME280;69207;47.502;18.940;2023-08-06T01:21:23;96741.50;;;18.19;100.00
65754;BME280;69207;47.502;18.940;2023-08-06T01:22:26;96739.44;;;18.19;100.00
65754;BME280;69207;47.502;18.940;2023-08-06T01:23:29;96743.59;;;18.18;100.00
65754;BME280;69207;47.502;18.940;2023-08-06T01:24:32;96740.09;;;18.16;100.00
65754;BME280;69207;47.502;18.940;2023-08-06T01:27:11;96744.28;;;18.17;100.00
65754;BME280;69207;47.502;18.940;2023-08-06T01:29:50;96741.50;;;18.17;100.00
65754;BME280;69207;47.502;18.940;2023-08-06T01:30:55;96738.03;;;18.18;100.00
65754;BME280;69207;47.502;18.940;2023-08-06T01:32:03;96742.88;;;18.18;100.00
65754;BME280;69207;47.502;18.940;2023-08-06T01:33:10;96731.06;;;18.17;100.00
65754;BME280;69207;47.502;18.940;2023-08-06T01:34:21;96737.31;;;18.16;100.00
65754;BME280;69207;47.502;18.940;2023-08-06T01:35:25;96737.97;;;18.14;100.00
65754;BME280;69207;47.502;18.940;2023-08-06T01:36:30;96742.88;;;18.16;100.00
65754;BME280;69207;47.502;18.940;2023-08-06T01:37:33;96749.06;;;18.14;100.00
65754;BME280;69207;47.502;18.940;2023-08-06T01:38:36;96747.00;;;18.15;100.00
65754;BME280;69207;47.502;18.940;2023-08-06T01:39:41;96749.78;;;18.15;100.00
65754;BME280;69207;47.502;18.940;2023-08-06T01:40:45;96742.88;;;18.16;100.00
65754;BME280;69207;47.502;18.940;2023-08-06T01:41:48;96746.97;;;18.13;100.00
65754;BME280;69207;47.502;18.940;2023-08-06T01:42:51;96747.66;;;18.13;100.00
65754;BME280;69207;47.502;18.940;2023-08-06T01:43:54;96742.09;;;18.11;100.00
65754;BME280;69207;47.502;18.940;2023-08-06T01:44:57;96745.56;;;18.12;100.00
65754;BME280;69207;47.502;18.940;2023-08-06T01:45:59;96744.81;;;18.09;100.00
65754;BME280;69207;47.502;18.940;2023-08-06T01:47:02;96742.03;;;18.09;100.00
65754;BME280;69207;47.502;18.940;2023-08-06T01:48:05;96746.94;;;18.11;100.00
65754;BME280;69207;47.502;18.940;2023-08-06T01:49:08;96744.16;;;18.11;100.00
65754;BME280;69207;47.502;18.940;2023-08-06T01:50:11;96744.88;;;18.11;100.00
65754;BME280;69207;47.502;18.940;2023-08-06T01:51:14;96747.66;;;18.13;100.00
65754;BME280;69207;47.502;18.940;2023-08-06T01:52:16;96744.81;;;18.09;100.00
65754;BME280;69207;47.502;18.940;2023-08-06T01:53:19;96744.78;;;18.07;100.00
65754;BME280;69207;47.502;18.940;2023-08-06T01:54:22;96743.41;;;18.08;100.00
65754;BME280;69207;47.502;18.940;2023-08-06T01:55:25;96739.22;;;18.05;100.00
65754;BME280;69207;47.502;18.940;2023-08-06T01:56:27;96733.66;;;18.05;100.00
65754;BME280;69207;47.502;18.940;2023-08-06T01:57:30;96729.50;;;18.06;100.00
65754;BME280;69207;47.502;18.940;2023-08-06T01:58:33;96730.87;;;18.05;100.00
65754;BME280;69207;47.502;18.940;2023-08-06T01:59:36;96716.28;;;18.05;100.00
65754;BME280;69207;47.502;18.940;2023-08-06T02:00:39;96711.44;;;18.07;100.00
65754;BME280;69207;47.502;18.940;2023-08-06T02:01:42;96712.84;;;18.08;100.00
65754;BME280;69207;47.502;18.940;2023-08-06T02:02:45;96710.75;;;18.07;100.00
65754;BME280;69207;47.502;18.940;2023-08-06T02:03:48;96704.47;;;18.06;100.00
65754;BME280;69207;47.502;18.940;2023-08-06T02:04:51;96703.78;;;18.06;100.00
65754;BME280;69207;47.502;18.940;2023-08-06T02:05:54;96691.22;;;18.03;100.00
65754;BME280;69207;47.502;18.940;2023-08-06T02:06:57;96691.88;;;18.01;100.00
65754;BME280;69207;47.502;18.940;2023-08-06T02:07:59;96694.66;;;17.99;100.00
65754;BME280;69207;47.502;18.940;2023-08-06T02:09:03;96689.75;;;17.98;100.00
65754;BME280;69207;47.502;18.940;2023-08-06T02:10:06;96693.91;;;17.99;100.00
65754;BME280;69207;47.502;18.940;2023-08-06T02:11:09;96693.19;;;17.96;100.00
65754;BME280;69207;47.502;18.940;2023-08-06T02:12:11;96691.78;;;17.95;100.00
65754;BME280;69207;47.502;18.940;2023-08-06T02:13:14;96692.50;;;17.96;100.00
65754;BME280;69207;47.502;18.940;2023-08-06T02:14:17;96686.94;;;17.96;100.00
65754;BME280;69207;47.502;18.940;2023-08-06T02:15:20;96687.66;;;17.98;100.00
65754;BME280;69207;47.502;18.940;2023-08-06T02:16:22;96680.75;;;17.99;100.00
65754;BME280;69207;47.502;18.940;2023-08-06T02:17:25;96682.09;;;17.98;100.00
65754;BME280;69207;47.502;18.940;2023-08-06T02:18:28;96674.44;;;17.97;100.00
65754;BME280;69207;47.502;18.940;2023-08-06T02:19:31;96675.84;;;17.98;100.00
65754;BME280;69207;47.502;18.940;2023-08-06T02:20:34;96668.88;;;17.97;100.00
65754;BME280;69207;47.502;18.940;2023-08-06T02:21:36;96674.44;;;17.97;100.00
65754;BME280;69207;47.502;18.940;2023-08-06T02:22:39;96670.28;;;17.98;100.00
65754;BME280;69207;47.502;18.940;2023-08-06T02:23:42;96671.66;;;17.97;100.00
65754;BME280;69207;47.502;18.940;2023-08-06T02:24:45;96669.59;;;17.97;100.00
65754;BME280;69207;47.502;18.940;2023-08-06T02:25:48;96668.19;;;17.96;100.00
65754;BME280;69207;47.502;18.940;2023-08-06T02:26:50;96669.50;;;17.93;100.00
65754;BME280;69207;47.502;18.940;2023-08-06T02:27:54;96664.69;;;17.93;100.00
65754;BME280;69207;47.502;18.940;2023-08-06T02:28:56;96664.69;;;17.93;100.00
65754;BME280;69207;47.502;18.940;2023-08-06T02:29:59;96662.59;;;17.94;100.00
65754;BME280;69207;47.502;18.940;2023-08-06T02:31:02;96661.94;;;17.96;100.00
65754;BME280;69207;47.502;18.940;2023-08-06T02:32:05;96652.91;;;17.97;100.00
65754;BME280;69207;47.502;18.940;2023-08-06T02:33:08;96655.00;;;17.99;100.00
65754;BME280;69207;47.502;18.940;2023-08-06T02:34:11;96650.84;;;17.98;100.00
65754;BME280;69207;47.502;18.940;2023-08-06T02:35:14;96650.81;;;17.96;100.00
65754;BME280;69207;47.502;18.940;2023-08-06T02:36:17;96652.84;;;17.93;100.00
65754;BME280;69207;47.502;18.940;2023-08-06T02:37:20;96655.59;;;17.91;100.00
65754;BME280;69207;47.502;18.940;2023-08-06T02:38:23;96647.25;;;17.91;100.00
65754;BME280;69207;47.502;18.940;2023-08-06T02:39:26;96652.12;;;17.90;100.00
65754;BME280;69207;47.502;18.940;2023-08-06T02:40:28;96652.78;;;17.89;100.00
65754;BME280;69207;47.502;18.940;2023-08-06T02:41:31;96643.09;;;17.90;100.00
65754;BME280;69207;47.502;18.940;2023-08-06T02:42:34;96652.84;;;17.93;100.00
65754;BME280;69207;47.502;18.940;2023-08-06T02:43:37;96657.00;;;17.92;100.00
65754;BME280;69207;47.502;18.940;2023-08-06T02:44:40;96657.69;;;17.92;100.00
65754;BME280;69207;47.502;18.940;2023-08-06T02:45:43;96661.19;;;17.93;100.00
65754;BME280;69207;47.502;18.940;2023-08-06T02:46:46;96652.84;;;17.93;100.00
65754;BME280;69207;47.502;18.940;2023-08-06T02:47:48;96661.16;;;17.91;100.00
65754;BME280;69207;47.502;18.940;2023-08-06T02:48:53;96663.22;;;17.90;100.00
65754;BME280;69207;47.502;18.940;2023-08-06T02:49:56;96670.84;;;17.90;100.00
65754;BME280;69207;47.502;18.940;2023-08-06T02:50:59;96658.97;;;17.85;100.00
65754;BME280;69207;47.502;18.940;2023-08-06T02:52:03;96663.13;;;17.84;100.00
65754;BME280;69207;47.502;18.940;2023-08-06T02:53:06;96650.62;;;17.85;100.00
65754;BME280;69207;47.502;18.940;2023-08-06T02:54:09;96643.00;;;17.86;100.00
65754;BME280;69207;47.502;18.940;2023-08-06T02:55:12;96644.38;;;17.85;100.00
65754;BME280;69207;47.502;18.940;2023-08-06T02:56:15;96642.94;;;17.82;100.00
65754;BME280;69207;47.502;18.940;2023-08-06T02:57:18;96638.81;;;17.85;100.00
65754;BME280;69207;47.502;18.940;2023-08-06T02:58:20;96639.53;;;17.85;100.00
65754;BME280;69207;47.502;18.940;2023-08-06T02:59:25;96643.00;;;17.86;100.00
65754;BME280;69207;47.502;18.940;2023-08-06T03:00:27;96654.13;;;17.86;100.00
65754;BME280;69207;47.502;18.940;2023-08-06T03:01:30;96658.28;;;17.85;100.00
65754;BME280;69207;47.502;18.940;2023-08-06T03:02:33;96654.78;;;17.84;100.00
65754;BME280;69207;47.502;18.940;2023-08-06T03:03:36;96654.87;;;17.88;100.00
65754;BME280;69207;47.502;18.940;2023-08-06T03:04:39;96658.34;;;17.89;100.00
65754;BME280;69207;47.502;18.940;2023-08-06T03:05:51;96656.94;;;17.88;100.00
65754;BME280;69207;47.502;18.940;2023-08-06T03:06:54;96656.91;;;17.86;100.00
65754;BME280;69207;47.502;18.940;2023-08-06T03:07:57;96649.31;;;17.88;100.00
65754;BME280;69207;47.502;18.940;2023-08-06T03:09:00;96652.12;;;17.92;100.00
65754;BME280;69207;47.502;18.940;2023-08-06T03:10:03;96650.00;;;17.89;100.00
65754;BME280;69207;47.502;18.940;2023-08-06T03:11:06;96645.84;;;17.88;100.00
65754;BME280;69207;47.502;18.940;2023-08-06T03:12:09;96651.38;;;17.88;100.00
65754;BME280;69207;47.502;18.940;2023-08-06T03:13:12;96650.00;;;17.89;100.00
65754;BME280;69207;47.502;18.940;2023-08-06T03:14:15;96650.62;;;17.83;100.00
65754;BME280;69207;47.502;18.940;2023-08-06T03:15:18;96656.09;;;17.79;100.00
65754;BME280;69207;47.502;18.940;2023-08-06T03:16:20;96649.84;;;17.79;100.00
65754;BME280;69207;47.502;18.940;2023-08-06T03:17:23;96661.63;;;17.77;100.00
65754;BME280;69207;47.502;18.940;2023-08-06T03:18:26;96648.37;;;17.76;100.00
65754;BME280;69207;47.502;18.940;2023-08-06T03:19:29;96642.81;;;17.74;100.00
65754;BME280;69207;47.502;18.940;2023-08-06T03:20:32;96642.03;;;17.71;100.00
65754;BME280;69207;47.502;18.940;2023-08-06T03:21:35;96645.44;;;17.67;100.00
65754;BME280;69207;47.502;18.940;2023-08-06T03:22:38;96642.50;;;17.59;100.00
65754;BME280;69207;47.502;18.940;2023-08-06T03:23:40;96645.34;;;17.61;100.00
65754;BME280;69207;47.502;18.940;2023-08-06T03:24:43;96643.94;;;17.60;100.00
65754;BME280;69207;47.502;18.940;2023-08-06T03:25:46;96643.22;;;17.60;100.00
65754;BME280;69207;47.502;18.940;2023-08-06T03:26:49;96646.72;;;17.60;100.00
65754;BME280;69207;47.502;18.940;2023-08-06T03:27:52;96653.59;;;17.57;100.00
65754;BME280;69207;47.502;18.940;2023-08-06T03:28:54;96648.75;;;17.58;100.00
65754;BME280;69207;47.502;18.940;2023-08-06T03:29:57;96648.84;;;17.64;100.00
65754;BME280;69207;47.502;18.940;2023-08-06T03:31:03;96648.81;;;17.62;100.00
65754;BME280;69207;47.502;18.940;2023-08-06T03:32:06;96648.06;;;17.59;100.00
65754;BME280;69207;47.502;18.940;2023-08-06T03:33:09;96643.81;;;17.54;100.00
65754;BME280;69207;47.502;18.940;2023-08-06T03:34:12;96641.72;;;17.53;100.00
65754;BME280;69207;47.502;18.940;2023-08-06T03:35:14;96649.44;;;17.58;100.00
65754;BME280;69207;47.502;18.940;2023-08-06T03:36:17;96643.28;;;17.62;100.00
65754;BME280;69207;47.502;18.940;2023-08-06T03:37:20;96648.03;;;17.57;100.00
65754;BME280;69207;47.502;18.940;2023-08-06T03:38:23;96650.13;;;17.57;100.00
65754;BME280;69207;47.502;18.940;2023-08-06T03:39:25;96643.78;;;17.52;100.00
65754;BME280;69207;47.502;18.940;2023-08-06T03:40:28;96645.13;;;17.49;100.00
65754;BME280;69207;47.502;18.940;2023-08-06T03:41:31;96647.22;;;17.51;100.00
65754;BME280;69207;47.502;18.940;2023-08-06T03:42:34;96645.13;;;17.49;100.00
65754;BME280;69207;47.502;18.940;2023-08-06T03:43:36;96645.75;;;17.46;100.00
65754;BME280;69207;47.502;18.940;2023-08-06T03:44:39;96645.63;;;17.39;100.00
65754;BME280;69207;47.502;18.940;2023-08-06T03:45:42;96651.12;;;17.37;100.00
65754;BME280;69207;47.502;18.940;2023-08-06T03:46:45;96642.81;;;17.37;100.00
65754;BME280;69207;47.502;18.940;2023-08-06T03:47:48;96651.91;;;17.40;100.00
65754;BME280;69207;47.502;18.940;2023-08-06T03:48:50;96644.94;;;17.39;100.00
65754;BME280;69207;47.502;18.940;2023-08-06T03:49:53;96656.00;;;17.37;100.00
65754;BME280;69207;47.502;18.940;2023-08-06T03:50:56;96649.69;;;17.32;100.00
65754;BME280;69207;47.502;18.940;2023-08-06T03:51:59;96657.88;;;17.26;100.00
65754;BME280;69207;47.502;18.940;2023-08-06T03:53:02;96662.13;;;17.31;100.00
65754;BME280;69207;47.502;18.940;2023-08-06T03:54:05;96658.84;;;17.41;100.00
65754;BME280;69207;47.502;18.940;2023-08-06T03:55:08;96662.25;;;17.37;100.00
65754;BME280;69207;47.502;18.940;2023-08-06T03:56:10;96664.56;;;17.49;100.00
65754;BME280;69207;47.502;18.940;2023-08-06T03:57:13;96656.66;;;17.35;100.00
65754;BME280;69207;47.502;18.940;2023-08-06T03:58:16;96664.09;;;17.25;100.00
65754;BME280;69207;47.502;18.940;2023-08-06T03:59:19;96660.59;;;17.24;100.00
65754;BME280;69207;47.502;18.940;2023-08-06T04:00:21;96659.78;;;17.18;100.00
65754;BME280;69207;47.502;18.940;2023-08-06T04:01:24;96657.59;;;17.12;100.00
65754;BME280;69207;47.502;18.940;2023-08-06T04:02:27;96654.81;;;17.12;100.00
65754;BME280;69207;47.502;18.940;2023-08-06T04:03:30;96647.19;;;17.12;100.00
65754;BME280;69207;47.502;18.940;2023-08-06T04:04:33;96649.94;;;17.10;100.00
65754;BME280;69207;47.502;18.940;2023-08-06T04:05:35;96644.44;;;17.12;100.00
65754;BME280;69207;47.502;18.940;2023-08-06T04:06:38;96656.94;;;17.13;100.00
65754;BME280;69207;47.502;18.940;2023-08-06T04:07:41;96651.25;;;17.07;100.00
65754;BME280;69207;47.502;18.940;2023-08-06T04:08:43;96642.22;;;17.07;100.00
65754;BME280;69207;47.502;18.940;2023-08-06T04:09:58;96646.41;;;17.08;100.00
65754;BME280;69207;47.502;18.940;2023-08-06T04:11:01;96638.13;;;17.10;100.00
65754;BME280;69207;47.502;18.940;2023-08-06T04:12:04;96640.91;;;17.10;100.00
65754;BME280;69207;47.502;18.940;2023-08-06T04:13:07;96643.66;;;17.10;100.00
65754;BME280;69207;47.502;18.940;2023-08-06T04:14:10;96637.47;;;17.11;100.00
65754;BME280;69207;47.502;18.940;2023-08-06T04:15:13;96632.66;;;17.14;100.00
65754;BME280;69207;47.502;18.940;2023-08-06T04:16:15;96639.56;;;17.11;100.00
65754;BME280;69207;47.502;18.940;2023-08-06T04:17:19;96640.91;;;17.10;100.00
65754;BME280;69207;47.502;18.940;2023-08-06T04:18:23;96644.34;;;17.08;100.00
65754;BME280;69207;47.502;18.940;2023-08-06T04:19:27;96633.91;;;17.07;100.00
65754;BME280;69207;47.502;18.940;2023-08-06T04:20:30;96638.84;;;17.10;100.00
65754;BME280;69207;47.502;18.940;2023-08-06T04:21:33;96634.63;;;17.07;100.00
65754;BME280;69207;47.502;18.940;2023-08-06T04:22:36;96631.81;;;17.05;100.00
65754;BME280;69207;47.502;18.940;2023-08-06T04:23:38;96634.47;;;16.99;100.00
65754;BME280;69207;47.502;18.940;2023-08-06T04:24:42;96629.50;;;16.94;100.00
65754;BME280;69207;47.502;18.940;2023-08-06T04:25:45;96629.34;;;16.87;100.00
65754;BME280;69207;47.502;18.940;2023-08-06T04:26:48;96629.50;;;16.94;100.00
65754;BME280;69207;47.502;18.940;2023-08-06T04:27:51;96629.50;;;16.94;100.00
65754;BME280;69207;47.502;18.940;2023-08-06T04:28:54;96628.75;;;16.91;100.00
65754;BME280;69207;47.502;18.940;2023-08-06T04:29:56;96631.50;;;16.91;100.00
65754;BME280;69207;47.502;18.940;2023-08-06T04:31:00;96627.44;;;16.94;100.00
65754;BME280;69207;47.502;18.940;2023-08-06T04:32:07;96621.22;;;16.96;100.00
65754;BME280;69207;47.502;18.940;2023-08-06T04:33:10;96625.97;;;16.91;100.00
65754;BME280;69207;47.502;18.940;2023-08-06T04:34:13;96624.47;;;16.86;100.00
65754;BME280;69207;47.502;18.940;2023-08-06T04:35:16;96624.47;;;16.86;100.00
65754;BME280;69207;47.502;18.940;2023-08-06T04:36:18;96630.00;;;16.84;100.00
65754;BME280;69207;47.502;18.940;2023-08-06T04:37:21;96628.62;;;16.85;100.00
65754;BME280;69207;47.502;18.940;2023-08-06T04:38:24;96622.41;;;16.86;100.00
65754;BME280;69207;47.502;18.940;2023-08-06T04:39:30;96623.16;;;16.89;100.00
65754;BME280;69207;47.502;18.940;2023-08-06T04:40:34;96623.19;;;16.91;100.00
65754;BME280;69207;47.502;18.940;2023-08-06T04:41:37;96622.41;;;16.86;100.00
65754;BME280;69207;47.502;18.940;2023-08-06T04:42:39;96624.44;;;16.84;100.00
65754;BME280;69207;47.502;18.940;2023-08-06T04:43:42;96624.44;;;16.84;100.00
65754;BME280;69207;47.502;18.940;2023-08-06T04:44:45;96627.88;;;16.82;100.00
65754;BME280;69207;47.502;18.940;2023-08-06T04:45:49;96631.31;;;16.81;100.00
65754;BME280;69207;47.502;18.940;2023-08-06T04:46:52;96629.94;;;16.82;100.00
65754;BME280;69207;47.502;18.940;2023-08-06T04:47:55;96623.03;;;16.83;100.00
65754;BME280;69207;47.502;18.940;2023-08-06T04:48:58;96626.41;;;16.79;100.00
65754;BME280;69207;47.502;18.940;2023-08-06T04:50:01;96619.56;;;16.82;100.00
65754;BME280;69207;47.502;18.940;2023-08-06T04:51:03;96620.97;;;16.83;100.00
65754;BME280;69207;47.502;18.940;2023-08-06T04:52:06;96628.50;;;16.79;100.00
65754;BME280;69207;47.502;18.940;2023-08-06T04:53:09;96615.94;;;16.76;100.00
65754;BME280;69207;47.502;18.940;2023-08-06T04:54:13;96625.63;;;16.75;100.00
65754;BME280;69207;47.502;18.940;2023-08-06T04:55:16;96617.22;;;16.71;100.00
65754;BME280;69207;47.502;18.940;2023-08-06T04:56:19;96613.81;;;16.72;100.00
65754;BME280;69207;47.502;18.940;2023-08-06T04:57:21;96608.91;;;16.71;100.00
65754;BME280;69207;47.502;18.940;2023-08-06T04:58:24;96617.16;;;16.69;100.00
65754;BME280;69207;47.502;18.940;2023-08-06T04:59:27;96610.91;;;16.68;100.00
65754;BME280;69207;47.502;18.940;2023-08-06T05:00:30;96615.69;;;16.66;100.00
65754;BME280;69207;47.502;18.940;2023-08-06T05:01:32;96608.75;;;16.64;100.00
65754;BME280;69207;47.502;18.940;2023-08-06T05:02:35;96610.09;;;16.61;100.00
65754;BME280;69207;47.502;18.940;2023-08-06T05:03:40;96612.19;;;16.63;100.00
65754;BME280;69207;47.502;18.940;2023-08-06T05:04:43;96603.91;;;16.65;100.00
65754;BME280;69207;47.502;18.940;2023-08-06T05:05:46;96612.59;;;16.81;100.00
65754;BME280;69207;47.502;18.940;2023-08-06T05:06:49;96613.25;;;16.80;100.00
65754;BME280;69207;47.502;18.940;2023-08-06T05:07:53;96618.69;;;16.74;100.00
65754;BME280;69207;47.502;18.940;2023-08-06T05:08:56;96612.28;;;16.67;100.00
65754;BME280;69207;47.502;18.940;2023-08-06T05:09:59;96614.34;;;16.67;100.00
65754;BME280;69207;47.502;18.940;2023-08-06T05:11:02;96608.69;;;16.60;100.00
65754;BME280;69207;47.502;18.940;2023-08-06T05:12:05;96616.22;;;16.56;100.00
65754;BME280;69207;47.502;18.940;2023-08-06T05:13:08;96612.03;;;16.55;100.00
65754;BME280;69207;47.502;18.940;2023-08-06T05:14:11;96614.16;;;16.58;100.00
65754;BME280;69207;47.502;18.940;2023-08-06T05:15:13;96608.53;;;16.54;100.00
65754;BME280;69207;47.502;18.940;2023-08-06T05:16:16;96603.72;;;16.55;100.00
65754;BME280;69207;47.502;18.940;2023-08-06T05:17:19;96605.72;;;16.52;100.00
65754;BME280;69207;47.502;18.940;2023-08-06T05:18:22;96601.41;;;16.45;100.00
65754;BME280;69207;47.502;18.940;2023-08-06T05:19:25;96598.75;;;16.49;100.00
65754;BME280;69207;47.502;18.940;2023-08-06T05:20:27;96602.84;;;16.48;100.00
65754;BME280;69207;47.502;18.940;2023-08-06T05:21:30;96595.22;;;16.47;100.00
65754;BME280;69207;47.502;18.940;2023-08-06T05:22:33;96597.38;;;16.50;100.00
65754;BME280;69207;47.502;18.940;2023-08-06T05:23:35;96603.84;;;16.61;100.00
65754;BME280;69207;47.502;18.940;2023-08-06T05:24:39;96601.66;;;16.55;100.00
65754;BME280;69207;47.502;18.940;2023-08-06T05:25:42;96602.84;;;16.48;100.00
65754;BME280;69207;47.502;18.940;2023-08-06T05:26:45;96601.34;;;16.43;100.00
65754;BME280;69207;47.502;18.940;2023-08-06T05:27:50;96604.00;;;16.37;100.00
65754;BME280;69207;47.502;18.940;2023-08-06T05:28:53;96608.25;;;16.40;100.00
65754;BME280;69207;47.502;18.940;2023-08-06T05:29:55;96604.75;;;16.40;100.00
65754;BME280;69207;47.502;18.940;2023-08-06T05:30:59;96607.47;;;16.37;100.00
65754;BME280;69207;47.502;18.940;2023-08-06T05:32:05;96604.66;;;16.35;100.00
65754;BME280;69207;47.502;18.940;2023-08-06T05:33:08;96601.16;;;16.33;100.00